Time;durP1;ratioP1;P1;durP2;ratioP2;P2;SDS_P1;SDS_P2;PMS_P1;PMS_P2;Temp;Humidity;BMP_temperature;BMP_pressure;BME280_temperature;BME280_humidity;BME280_pressure;Samples;Min_cycle;Max_cycle;Signal;HPM_P1;HPM_P2
2023/08/24 00:01:12;;;;;;;;;;;22.40;68.00;;;;;;5113153;28;19924;-65
2023/08/24 00:03:39;;;;;;;;;;;22.40;68.00;;;;;;5113151;28;19919;-65
2023/08/24 00:06:04;;;;;;;;;;;22.40;68.00;;;;;;5114582;28;20397;-65
2023/08/24 00:08:30;;;;;;;;;;;22.40;67.90;;;;;;5114395;28;19997;-65
2023/08/24 00:10:55;;;;;;;;;;;22.40;67.90;;;;;;5112845;28;20043;-65
2023/08/24 00:13:21;;;;;;;;;;;22.40;67.90;;;;;;5112269;28;19923;-65
2023/08/24 00:15:46;;;;;;;;;;;22.40;67.90;;;;;;5112658;28;19976;-65
2023/08/24 00:18:12;;;;;;;;;;;22.40;67.90;;;;;;5113027;28;19976;-66
2023/08/24 00:20:37;;;;;;;;;;;22.40;67.90;;;;;;5112680;28;19919;-65
2023/08/24 00:23:03;;;;;;;;;;;22.40;67.90;;;;;;5147497;27;19919;-65
2023/08/24 00:25:29;;;;;;;;;;;22.30;67.90;;;;;;5112505;28;20019;-65
2023/08/24 00:27:55;;;;;;;;;;;22.40;67.90;;;;;;5114058;28;20272;-65
2023/08/24 00:30:20;;;;;;;;;;;22.30;67.90;;;;;;5146881;27;19969;-65
2023/08/24 00:32:46;;;;;;;;;;;22.30;67.90;;;;;;5112610;28;19926;-65
2023/08/24 00:35:12;;;;;;;;;;;22.30;67.80;;;;;;5146734;27;19924;-65
2023/08/24 00:37:37;;;;;;;;;;;22.40;67.90;;;;;;5112698;28;19919;-65
2023/08/24 00:40:07;;;;;;;;;;;22.30;67.80;;;;;;5112356;28;20319;-66
2023/08/24 00:42:33;;;;;;;;;;;22.30;67.90;;;;;;5112337;28;19920;-65
2023/08/24 00:44:58;;;;;;;;;;;22.30;67.80;;;;;;5112625;28;19926;-65
2023/08/24 00:47:24;;;;;;;;;;;22.30;67.90;;;;;;5146950;27;19920;-65
2023/08/24 00:49:50;;;;;;;;;;;22.30;67.80;;;;;;5112405;28;19923;-65
2023/08/24 00:52:16;;;;;;;;;;;22.30;67.80;;;;;;5113484;28;19949;-65
2023/08/24 00:54:41;;;;;;;;;;;22.30;67.80;;;;;;5113520;28;19927;-65
2023/08/24 00:57:07;;;;;;;;;;;22.30;67.80;;;;;;5113532;28;19926;-65
2023/08/24 00:59:33;;;;;;;;;;;22.30;67.80;;;;;;5113405;28;19920;-65
2023/08/24 01:01:59;;;;;;;;;;;22.20;67.70;;;;;;5146748;27;19920;-65
2023/08/24 01:04:25;;;;;;;;;;;22.20;67.80;;;;;;5112014;28;19968;-65
2023/08/24 01:06:52;;;;;;;;;;;22.20;67.70;;;;;;5112262;28;20007;-65
2023/08/24 01:09:18;;;;;;;;;;;22.20;67.70;;;;;;5113301;28;19920;-65
2023/08/24 01:12:03;;;;;;;;;;;22.20;67.70;;;;;;5112203;28;20394;-65
2023/08/24 01:14:33;;;;;;;;;;;22.20;67.70;;;;;;5111655;28;20386;-66
2023/08/24 01:17:01;;;;;;;;;;;22.20;67.70;;;;;;5112144;28;19920;-65
2023/08/24 01:19:35;;;;;;;;;;;22.20;67.70;;;;;;5113104;28;20019;-65
2023/08/24 01:22:02;;;;;;;;;;;22.20;67.70;;;;;;5112228;28;19919;-65
2023/08/24 01:24:35;;;;;;;;;;;22.20;67.70;;;;;;5111586;27;19919;-66
2023/08/24 01:27:01;;;;;;;;;;;22.20;67.70;;;;;;5111947;28;20015;-65
2023/08/24 01:29:26;;;;;;;;;;;22.20;67.70;;;;;;5111817;28;20386;-65
2023/08/24 01:31:52;;;;;;;;;;;22.20;67.70;;;;;;5111802;28;19924;-65
2023/08/24 01:34:18;;;;;;;;;;;22.20;67.70;;;;;;5111395;28;19924;-65
2023/08/24 01:36:45;;;;;;;;;;;22.20;67.70;;;;;;5111048;28;21371;-70
2023/08/24 01:39:14;;;;;;;;;;;22.10;67.70;;;;;;5112909;28;19931;-65
2023/08/24 01:41:42;;;;;;;;;;;22.10;67.70;;;;;;5111812;28;19976;-65
2023/08/24 01:44:09;;;;;;;;;;;22.10;67.70;;;;;;5112863;28;19920;-65
2023/08/24 01:46:36;;;;;;;;;;;22.10;67.70;;;;;;5112720;28;19924;-65
2023/08/24 01:49:03;;;;;;;;;;;22.10;67.70;;;;;;5112763;28;19920;-65
2023/08/24 01:51:29;;;;;;;;;;;22.10;67.70;;;;;;5111766;28;19919;-65
2023/08/24 01:53:55;;;;;;;;;;;22.10;67.70;;;;;;5112823;28;20290;-65
2023/08/24 01:56:20;;;;;;;;;;;22.10;67.70;;;;;;5111681;28;20006;-65
2023/08/24 01:58:46;;;;;;;;;;;22.10;67.70;;;;;;5112686;28;19966;-65
2023/08/24 02:01:12;;;;;;;;;;;22.10;67.80;;;;;;5111527;28;20378;-65
2023/08/24 02:03:39;;;;;;;;;;;22.10;67.70;;;;;;5111573;28;20397;-65
2023/08/24 02:06:06;;;;;;;;;;;22.10;67.80;;;;;;5111163;28;19949;-65
2023/08/24 02:08:32;;;;;;;;;;;22.10;67.80;;;;;;5112637;28;20294;-65
2023/08/24 02:10:57;;;;;;;;;;;22.10;67.80;;;;;;5111476;28;20010;-65
2023/08/24 02:13:23;;;;;;;;;;;22.10;67.80;;;;;;5111478;28;19926;-65
2023/08/24 02:15:48;;;;;;;;;;;22.10;67.80;;;;;;5111106;28;19931;-66
2023/08/24 02:18:14;;;;;;;;;;;22.10;67.80;;;;;;5112744;28;19920;-65
2023/08/24 02:20:40;;;;;;;;;;;22.10;67.80;;;;;;5145770;27;19924;-65
2023/08/24 02:23:05;;;;;;;;;;;22.10;67.80;;;;;;5112362;28;20002;-65
2023/08/24 02:25:31;;;;;;;;;;;22.10;67.90;;;;;;5112565;28;19920;-65
2023/08/24 02:27:56;;;;;;;;;;;22.00;67.90;;;;;;5145385;27;20271;-65
2023/08/24 02:30:22;;;;;;;;;;;22.10;67.90;;;;;;5112335;28;19919;-65
2023/08/24 02:32:47;;;;;;;;;;;22.10;67.90;;;;;;5110603;28;19927;-65
2023/08/24 02:35:13;;;;;;;;;;;22.00;67.80;;;;;;5112510;28;20220;-65
2023/08/24 02:37:38;;;;;;;;;;;22.00;67.90;;;;;;5112937;28;19919;-65
2023/08/24 02:40:05;;;;;;;;;;;22.00;67.80;;;;;;5114675;28;20007;-65
2023/08/24 02:42:31;;;;;;;;;;;22.00;67.80;;;;;;5115043;28;19964;-65
2023/08/24 02:44:57;;;;;;;;;;;22.00;67.90;;;;;;5115989;28;20274;-65
2023/08/24 02:47:22;;;;;;;;;;;22.00;67.90;;;;;;5114492;28;19927;-65
2023/08/24 02:49:48;;;;;;;;;;;22.00;67.90;;;;;;5114516;28;19920;-65
2023/08/24 02:52:13;;;;;;;;;;;22.00;67.90;;;;;;5114755;28;19962;-65
2023/08/24 02:54:39;;;;;;;;;;;22.00;67.90;;;;;;5148997;27;19924;-65
2023/08/24 02:57:05;;;;;;;;;;;22.00;67.90;;;;;;5114685;28;20282;-65
2023/08/24 02:59:30;;;;;;;;;;;22.00;67.90;;;;;;5148886;27;19980;-65
2023/08/24 03:01:55;;;;;;;;;;;22.00;67.90;;;;;;5114651;28;19934;-65
2023/08/24 03:04:21;;;;;;;;;;;22.00;67.90;;;;;;5114271;28;20368;-66
2023/08/24 03:06:47;;;;;;;;;;;22.00;67.90;;;;;;5114689;28;19920;-65
2023/08/24 03:09:12;;;;;;;;;;;22.00;67.90;;;;;;5114179;28;19943;-65
2023/08/24 03:11:38;;;;;;;;;;;22.00;68.00;;;;;;5115471;28;19920;-65
2023/08/24 03:14:03;;;;;;;;;;;22.00;68.00;;;;;;5114384;28;20006;-65
2023/08/24 03:16:29;;;;;;;;;;;22.00;68.00;;;;;;5114471;28;20075;-65
2023/08/24 03:18:54;;;;;;;;;;;22.00;68.70;;;;;;5115307;28;19919;-65
2023/08/24 03:21:20;;;;;;;;;;;22.00;68.00;;;;;;5115512;28;20290;-71
2023/08/24 03:23:45;;;;;;;;;;;22.00;68.00;;;;;;5114080;28;19923;-65
2023/08/24 03:26:11;;;;;;;;;;;22.00;67.90;;;;;;5115439;28;19920;-65
2023/08/24 03:28:37;;;;;;;;;;;22.00;68.00;;;;;;5115181;28;20037;-65
2023/08/24 03:31:02;;;;;;;;;;;22.00;68.00;;;;;;5114154;28;20429;-65
2023/08/24 03:33:28;;;;;;;;;;;22.00;68.10;;;;;;5113591;28;20374;-66
2023/08/24 03:35:53;;;;;;;;;;;21.90;67.90;;;;;;5113403;28;19951;-65
2023/08/24 03:38:19;;;;;;;;;;;22.00;68.00;;;;;;5114058;28;19926;-65
2023/08/24 03:40:44;;;;;;;;;;;21.90;67.90;;;;;;5113665;28;19919;-65
2023/08/24 03:43:10;;;;;;;;;;;22.00;68.00;;;;;;5113937;28;19990;-65
2023/08/24 03:45:36;;;;;;;;;;;21.90;67.90;;;;;;5113561;28;19919;-65
2023/08/24 03:48:01;;;;;;;;;;;22.00;68.00;;;;;;5112821;28;20290;-65
2023/08/24 03:50:27;;;;;;;;;;;21.90;67.90;;;;;;5113527;28;19970;-65
2023/08/24 03:52:54;;;;;;;;;;;21.90;68.00;;;;;;5113718;28;20267;-65
2023/08/24 03:55:20;;;;;;;;;;;21.90;67.90;;;;;;5114623;28;19924;-65
2023/08/24 03:57:45;;;;;;;;;;;21.90;67.90;;;;;;5114756;27;19920;-65
2023/08/24 04:00:11;;;;;;;;;;;21.90;67.90;;;;;;5113507;28;19920;-65
2023/08/24 04:02:37;;;;;;;;;;;21.90;67.90;;;;;;5114314;28;19920;-65
2023/08/24 04:05:03;;;;;;;;;;;21.90;67.90;;;;;;5113310;28;20382;-66
2023/08/24 04:07:29;;;;;;;;;;;21.90;67.90;;;;;;5113547;28;19920;-65
2023/08/24 04:09:54;;;;;;;;;;;21.90;68.60;;;;;;5112857;28;19920;-65
2023/08/24 04:12:20;;;;;;;;;;;21.90;67.80;;;;;;5112559;28;20359;-65
2023/08/24 04:14:45;;;;;;;;;;;21.90;67.80;;;;;;5114222;28;19924;-66
2023/08/24 04:17:10;;;;;;;;;;;21.90;67.80;;;;;;5112822;28;19981;-65
2023/08/24 04:19:37;;;;;;;;;;;21.90;67.80;;;;;;5112930;28;20006;-66
2023/08/24 04:22:03;;;;;;;;;;;21.90;67.80;;;;;;5113965;28;19926;-66
2023/08/24 04:24:28;;;;;;;;;;;21.90;67.90;;;;;;5113061;28;19920;-65
2023/08/24 04:26:54;;;;;;;;;;;21.90;67.90;;;;;;5112709;28;19920;-66
2023/08/24 04:29:19;;;;;;;;;;;21.80;67.80;;;;;;5113944;28;19967;-65
2023/08/24 04:31:45;;;;;;;;;;;21.90;67.80;;;;;;5113874;28;19955;-65
2023/08/24 04:34:11;;;;;;;;;;;21.90;67.80;;;;;;5112294;28;19931;-65
2023/08/24 04:36:37;;;;;;;;;;;21.90;67.80;;;;;;5112713;28;19919;-65
2023/08/24 04:39:02;;;;;;;;;;;21.90;67.80;;;;;;5113782;28;19920;-66
2023/08/24 04:41:28;;;;;;;;;;;21.80;67.70;;;;;;5113891;28;19920;-65
2023/08/24 04:43:54;;;;;;;;;;;21.80;67.70;;;;;;5112400;28;19919;-65
2023/08/24 04:46:20;;;;;;;;;;;21.80;67.70;;;;;;5112710;28;19943;-65
2023/08/24 04:48:45;;;;;;;;;;;21.80;67.80;;;;;;5112487;28;19935;-65
2023/08/24 04:51:11;;;;;;;;;;;21.80;67.80;;;;;;5113551;28;19959;-65
2023/08/24 04:53:36;;;;;;;;;;;21.80;67.70;;;;;;5112384;28;19924;-71
2023/08/24 04:56:02;;;;;;;;;;;21.80;67.70;;;;;;5112141;28;19923;-65
2023/08/24 04:58:28;;;;;;;;;;;21.80;67.70;;;;;;5113565;27;19924;-65
2023/08/24 05:00:55;;;;;;;;;;;21.80;67.70;;;;;;5111615;28;19926;-65
2023/08/24 05:03:21;;;;;;;;;;;21.80;67.70;;;;;;5112317;28;19985;-65
2023/08/24 05:05:47;;;;;;;;;;;21.80;67.70;;;;;;5113289;28;19923;-68
2023/08/24 05:08:12;;;;;;;;;;;21.80;67.80;;;;;;5113166;28;19926;-65
2023/08/24 05:10:38;;;;;;;;;;;21.70;67.70;;;;;;5146748;27;20022;-65
2023/08/24 05:13:04;;;;;;;;;;;21.70;67.80;;;;;;5113298;28;19919;-65
2023/08/24 05:15:29;;;;;;;;;;;21.70;67.90;;;;;;5146083;27;20390;-65
2023/08/24 05:17:56;;;;;;;;;;;21.70;67.90;;;;;;5112094;28;20336;-65
2023/08/24 05:20:22;;;;;;;;;;;21.70;67.80;;;;;;5111771;28;20426;-66
2023/08/24 05:22:47;;;;;;;;;;;21.70;67.80;;;;;;5146341;27;19926;-65
2023/08/24 05:25:13;;;;;;;;;;;21.70;67.90;;;;;;5111671;28;19919;-65
2023/08/24 05:27:39;;;;;;;;;;;21.70;67.90;;;;;;5111584;28;19973;-65
2023/08/24 05:30:05;;;;;;;;;;;21.70;68.00;;;;;;5113119;28;20353;-65
2023/08/24 05:32:31;;;;;;;;;;;21.70;67.90;;;;;;5111702;28;19959;-65
2023/08/24 05:34:56;;;;;;;;;;;21.70;67.90;;;;;;5112557;28;20028;-65
2023/08/24 05:37:22;;;;;;;;;;;21.70;68.00;;;;;;5111698;28;19972;-65
2023/08/24 05:39:47;;;;;;;;;;;21.70;68.00;;;;;;5111482;28;20408;-65
2023/08/24 05:42:16;;;;;;;;;;;21.70;68.00;;;;;;5111727;28;19924;-65
2023/08/24 05:44:41;;;;;;;;;;;21.70;68.00;;;;;;5111743;28;19919;-65
2023/08/24 05:47:07;;;;;;;;;;;21.70;68.00;;;;;;5111400;28;19935;-66
2023/08/24 05:49:32;;;;;;;;;;;21.70;68.00;;;;;;5112733;28;19919;-65
2023/08/24 05:51:58;;;;;;;;;;;21.70;68.10;;;;;;5112789;28;20424;-65
2023/08/24 05:54:24;;;;;;;;;;;21.70;68.10;;;;;;5111196;28;20413;-65
2023/08/24 05:56:49;;;;;;;;;;;21.70;68.10;;;;;;5146140;27;19927;-65
2023/08/24 05:59:14;;;;;;;;;;;21.60;68.00;;;;;;5112529;28;19920;-65
2023/08/24 06:01:41;;;;;;;;;;;21.70;68.10;;;;;;5112663;28;20014;-66
2023/08/24 06:04:07;;;;;;;;;;;21.60;68.10;;;;;;5111717;28;19965;-65
2023/08/24 06:06:33;;;;;;;;;;;21.70;68.90;;;;;;5111561;28;19920;-65
2023/08/24 06:08:58;;;;;;;;;;;21.70;68.10;;;;;;5110740;28;19931;-65
2023/08/24 06:11:24;;;;;;;;;;;21.70;68.20;;;;;;5113960;28;20264;-65
2023/08/24 06:13:52;;;;;;;;;;;21.60;68.10;;;;;;5116630;28;19923;-65
2023/08/24 06:16:17;;;;;;;;;;;21.60;68.10;;;;;;5115422;28;19959;-65
2023/08/24 06:18:42;;;;;;;;;;;21.60;68.20;;;;;;5115606;28;20004;-66
2023/08/24 06:21:08;;;;;;;;;;;21.70;68.30;;;;;;5116356;28;19920;-65
2023/08/24 06:23:33;;;;;;;;;;;21.70;68.30;;;;;;5116457;28;19926;-65
2023/08/24 06:26:01;;;;;;;;;;;21.70;68.30;;;;;;5116230;28;19920;-65
2023/08/24 06:28:26;;;;;;;;;;;21.70;68.30;;;;;;5115403;28;19963;-65
2023/08/24 06:30:52;;;;;;;;;;;21.60;68.20;;;;;;5115317;28;19969;-65
2023/08/24 06:33:17;;;;;;;;;;;21.70;68.40;;;;;;5114896;28;20459;-65
2023/08/24 06:35:43;;;;;;;;;;;21.70;68.30;;;;;;5116073;28;19979;-65
2023/08/24 06:38:08;;;;;;;;;;;21.70;68.40;;;;;;5097907;28;19920;-65
2023/08/24 06:40:34;;;;;;;;;;;21.70;68.40;;;;;;5098002;28;19920;-65
2023/08/24 06:42:59;;;;;;;;;;;21.60;68.30;;;;;;5116095;28;19930;-65
2023/08/24 06:45:25;;;;;;;;;;;21.70;68.40;;;;;;5115955;28;19964;-65
2023/08/24 06:47:51;;;;;;;;;;;21.60;68.40;;;;;;5097902;28;20355;-65
2023/08/24 06:50:16;;;;;;;;;;;21.60;68.50;;;;;;5116003;28;19926;-65
2023/08/24 06:52:42;;;;;;;;;;;21.70;68.60;;;;;;5097764;28;19920;-65
2023/08/24 06:55:08;;;;;;;;;;;21.70;68.60;;;;;;5115708;28;19947;-65
2023/08/24 06:57:34;;;;;;;;;;;21.70;68.60;;;;;;5097644;28;19931;-66
2023/08/24 07:00:00;;;;;;;;;;;21.70;68.60;;;;;;5080519;28;20334;-65
2023/08/24 07:02:25;;;;;;;;;;;21.60;68.50;;;;;;5089575;28;19920;-65
2023/08/24 07:04:51;;;;;;;;;;;21.60;68.60;;;;;;5095335;28;19928;-65
2023/08/24 07:07:16;;;;;;;;;;;21.70;68.70;;;;;;5077292;28;20019;-65
2023/08/24 07:09:41;;;;;;;;;;;21.70;68.70;;;;;;5077027;28;19943;-65
2023/08/24 07:12:09;;;;;;;;;;;21.70;68.70;;;;;;5076961;28;19920;-65
2023/08/24 07:14:35;;;;;;;;;;;21.70;68.70;;;;;;5076880;28;20401;-65
2023/08/24 07:17:01;;;;;;;;;;;21.60;68.70;;;;;;5076788;28;19963;-65
2023/08/24 07:19:27;;;;;;;;;;;21.70;68.80;;;;;;5094977;28;19920;-65
2023/08/24 07:21:52;;;;;;;;;;;21.70;68.90;;;;;;5094918;28;20282;-65
2023/08/24 07:24:20;;;;;;;;;;;21.70;68.80;;;;;;5076162;28;20010;-65
2023/08/24 07:26:46;;;;;;;;;;;21.70;68.90;;;;;;5094751;28;20294;-65
2023/08/24 07:29:12;;;;;;;;;;;21.70;68.90;;;;;;5076882;28;19967;-65
2023/08/24 07:31:37;;;;;;;;;;;21.70;69.00;;;;;;5094705;28;20409;-65
2023/08/24 07:34:03;;;;;;;;;;;21.70;69.00;;;;;;5076362;28;19968;-65
2023/08/24 07:36:29;;;;;;;;;;;21.70;69.00;;;;;;5076441;28;19924;-65
2023/08/24 07:38:55;;;;;;;;;;;21.70;69.10;;;;;;5076362;28;19920;-65
2023/08/24 07:41:21;;;;;;;;;;;21.70;69.10;;;;;;5094407;28;19966;-66
2023/08/24 07:43:46;;;;;;;;;;;21.70;69.10;;;;;;5076573;28;19926;-65
2023/08/24 07:46:12;;;;;;;;;;;21.70;69.10;;;;;;5076641;28;19920;-65
2023/08/24 07:48:37;;;;;;;;;;;21.70;69.20;;;;;;5076197;28;19927;-66
2023/08/24 07:51:03;;;;;;;;;;;21.70;69.20;;;;;;5076471;28;19920;-65
2023/08/24 07:53:29;;;;;;;;;;;21.70;69.30;;;;;;5076198;28;19946;-65
2023/08/24 07:55:57;;;;;;;;;;;21.70;69.30;;;;;;5094157;28;19927;-65
2023/08/24 07:58:23;;;;;;;;;;;21.70;69.40;;;;;;5094060;28;19924;-65
2023/08/24 08:00:50;;;;;;;;;;;21.70;69.30;;;;;;5075955;28;19920;-64
2023/08/24 08:03:16;;;;;;;;;;;21.70;69.40;;;;;;5076080;28;19927;-65
2023/08/24 08:05:42;;;;;;;;;;;21.70;69.50;;;;;;5075949;28;19920;-65
2023/08/24 08:08:07;;;;;;;;;;;21.70;69.40;;;;;;5075833;28;19923;-71
2023/08/24 08:10:32;;;;;;;;;;;21.70;69.40;;;;;;5075683;28;19964;-65
2023/08/24 08:12:58;;;;;;;;;;;21.70;69.40;;;;;;5076048;28;19926;-66
2023/08/24 08:15:23;;;;;;;;;;;21.70;69.40;;;;;;5093737;28;19928;-66
2023/08/24 08:17:49;;;;;;;;;;;21.70;69.40;;;;;;5076243;28;20019;-65
2023/08/24 08:20:15;;;;;;;;;;;21.70;69.40;;;;;;5093687;28;19966;-65
2023/08/24 08:22:40;;;;;;;;;;;21.70;69.50;;;;;;5093735;28;19946;-65
2023/08/24 08:25:06;;;;;;;;;;;21.70;69.40;;;;;;5093655;28;19966;-65
2023/08/24 08:27:33;;;;;;;;;;;21.80;69.50;;;;;;5075710;28;19966;-65
2023/08/24 08:29:58;;;;;;;;;;;21.70;69.40;;;;;;5072125;28;19936;-65
2023/08/24 08:32:26;;;;;;;;;;;21.80;69.50;;;;;;5072344;28;19928;-65
2023/08/24 08:34:53;;;;;;;;;;;21.70;69.40;;;;;;5119300;27;19935;-65
2023/08/24 08:37:19;;;;;;;;;;;21.80;69.50;;;;;;5116241;27;20286;-65
2023/08/24 08:39:44;;;;;;;;;;;21.80;69.50;;;;;;5116185;27;19927;-64
2023/08/24 08:42:12;;;;;;;;;;;21.80;69.50;;;;;;5115915;27;19930;-65
2023/08/24 08:44:37;;;;;;;;;;;21.80;69.40;;;;;;5116121;27;19919;-65
2023/08/24 08:47:03;;;;;;;;;;;21.80;69.50;;;;;;5115805;27;20286;-65
2023/08/24 08:49:30;;;;;;;;;;;21.80;69.40;;;;;;5134476;27;19919;-65
2023/08/24 08:51:55;;;;;;;;;;;21.80;69.50;;;;;;5134175;27;19920;-65
2023/08/24 08:54:21;;;;;;;;;;;21.80;69.40;;;;;;5115602;27;19977;-65
2023/08/24 08:56:46;;;;;;;;;;;21.80;69.30;;;;;;5115920;27;19926;-65
2023/08/24 08:59:13;;;;;;;;;;;21.80;69.20;;;;;;5133945;27;19923;-65
2023/08/24 09:01:39;;;;;;;;;;;21.80;69.20;;;;;;5133979;27;19988;-65
2023/08/24 09:04:06;;;;;;;;;;;21.80;69.20;;;;;;5115856;27;19941;-65
2023/08/24 09:06:31;;;;;;;;;;;21.80;69.20;;;;;;5115569;27;20377;-65
2023/08/24 09:08:56;;;;;;;;;;;21.80;69.10;;;;;;5115430;27;19926;-65
2023/08/24 09:11:23;;;;;;;;;;;21.80;69.20;;;;;;5133735;27;19919;-64
2023/08/24 09:13:49;;;;;;;;;;;21.80;69.10;;;;;;5115469;27;19919;-70
2023/08/24 09:16:16;;;;;;;;;;;21.90;69.20;;;;;;5115577;27;19970;-65
2023/08/24 09:18:43;;;;;;;;;;;21.90;69.30;;;;;;5133770;27;19923;-65
2023/08/24 09:21:09;;;;;;;;;;;21.90;69.30;;;;;;5133726;27;19924;-65
2023/08/24 09:23:34;;;;;;;;;;;21.80;69.20;;;;;;5115511;27;19950;-65
2023/08/24 09:26:00;;;;;;;;;;;21.90;69.30;;;;;;5115461;27;19981;-71
2023/08/24 09:28:25;;;;;;;;;;;21.90;69.40;;;;;;5149821;27;20366;-65
2023/08/24 09:30:54;;;;;;;;;;;21.90;69.40;;;;;;5115409;27;19924;-65
2023/08/24 09:33:21;;;;;;;;;;;21.90;69.40;;;;;;5114744;27;19923;-65
2023/08/24 09:35:52;;;;;;;;;;;21.90;69.40;;;;;;5133701;27;19923;-65
2023/08/24 09:38:19;;;;;;;;;;;21.90;69.40;;;;;;5114979;27;19920;-65
2023/08/24 09:40:48;;;;;;;;;;;21.90;69.60;;;;;;5115271;27;20375;-65
2023/08/24 09:43:14;;;;;;;;;;;21.90;69.60;;;;;;5115159;28;20191;-65
2023/08/24 09:45:55;;;;;;;;;;;21.90;69.50;;;;;;5115006;27;19920;-65
2023/08/24 09:48:21;;;;;;;;;;;21.90;69.60;;;;;;5149288;27;19926;-66
2023/08/24 09:50:48;;;;;;;;;;;21.90;69.60;;;;;;5133500;28;19967;-65
2023/08/24 09:53:15;;;;;;;;;;;21.90;69.60;;;;;;5115138;28;19983;-65
2023/08/24 09:55:42;;;;;;;;;;;21.90;69.60;;;;;;5114827;28;20358;-65
2023/08/24 09:58:09;;;;;;;;;;;21.90;69.50;;;;;;5114798;28;19951;-65
2023/08/24 10:00:35;;;;;;;;;;;21.90;69.60;;;;;;5115064;28;19920;-66
2023/08/24 10:03:01;;;;;;;;;;;21.90;69.50;;;;;;5133246;28;20003;-65
2023/08/24 10:05:27;;;;;;;;;;;21.90;69.50;;;;;;5133592;28;20286;-65
2023/08/24 10:07:55;;;;;;;;;;;21.90;69.50;;;;;;5113865;28;19926;-65
2023/08/24 10:10:21;;;;;;;;;;;21.90;70.30;;;;;;5114960;28;19919;-65
2023/08/24 10:12:50;;;;;;;;;;;21.90;69.60;;;;;;5114540;28;19926;-65
2023/08/24 10:15:17;;;;;;;;;;;21.90;69.60;;;;;;5114639;28;19923;-65
2023/08/24 10:17:44;;;;;;;;;;;21.90;69.60;;;;;;5132982;28;20455;-65
2023/08/24 10:20:10;;;;;;;;;;;21.90;69.60;;;;;;5114615;28;19920;-65
2023/08/24 10:22:36;;;;;;;;;;;21.90;69.60;;;;;;5114591;28;19920;-65
2023/08/24 10:25:02;;;;;;;;;;;21.90;69.60;;;;;;5114860;28;20074;-65
2023/08/24 10:27:29;;;;;;;;;;;21.90;69.60;;;;;;5114430;28;19978;-65
2023/08/24 10:29:55;;;;;;;;;;;21.90;69.70;;;;;;5132897;28;19919;-70
2023/08/24 10:32:21;;;;;;;;;;;21.90;69.70;;;;;;5114505;28;19920;-65
2023/08/24 10:34:47;;;;;;;;;;;21.90;69.70;;;;;;5114405;28;19932;-65
2023/08/24 10:37:12;;;;;;;;;;;21.90;69.70;;;;;;5114820;28;19923;-65
2023/08/24 10:39:44;;;;;;;;;;;21.90;69.70;;;;;;5114694;28;20370;-70
2023/08/24 10:42:10;;;;;;;;;;;21.90;69.70;;;;;;5132776;28;20373;-65
2023/08/24 10:44:37;;;;;;;;;;;21.90;69.70;;;;;;5114560;28;20007;-65
2023/08/24 10:47:19;;;;;;;;;;;21.90;69.70;;;;;;5132939;28;19923;-65
2023/08/24 10:50:00;;;;;;;;;;;21.90;69.70;;;;;;5114557;28;19920;-70
2023/08/24 10:52:30;;;;;;;;;;;21.90;69.70;;;;;;5114321;28;19949;-65
2023/08/24 10:54:55;;;;;;;;;;;21.90;69.70;;;;;;5132764;28;19927;-65
2023/08/24 10:57:22;;;;;;;;;;;21.90;69.70;;;;;;5132228;27;19973;-65
2023/08/24 11:02:48;;;;;;;;;;;21.90;69.80;;;;;;5110295;27;19919;-65
2023/08/24 11:07:56;;;;;;;;;;;21.90;69.80;;;;;;5110359;27;19918;-65
2023/08/24 11:10:22;;;;;;;;;;;21.90;69.80;;;;;;5108908;28;20379;-65
2023/08/24 11:13:08;;;;;;;;;;;21.90;69.80;;;;;;5109271;28;19924;-65
2023/08/24 11:15:36;;;;;;;;;;;21.90;69.90;;;;;;5108664;28;19973;-65
2023/08/24 11:18:22;;;;;;;;;;;21.90;69.90;;;;;;5108863;28;20380;-65
2023/08/24 11:20:49;;;;;;;;;;;21.90;69.90;;;;;;5108974;28;20023;-65
2023/08/24 11:23:15;;;;;;;;;;;21.90;70.00;;;;;;5108932;28;19920;-65
2023/08/24 11:25:41;;;;;;;;;;;21.90;70.00;;;;;;5108645;28;20294;-70
2023/08/24 11:28:06;;;;;;;;;;;21.90;70.00;;;;;;5109827;28;19928;-65
2023/08/24 11:30:33;;;;;;;;;;;21.90;70.00;;;;;;5108940;28;19925;-65
2023/08/24 11:32:58;;;;;;;;;;;21.90;70.00;;;;;;5108949;28;19969;-65
2023/08/24 11:35:24;;;;;;;;;;;21.90;70.00;;;;;;5109818;28;20016;-65
2023/08/24 11:37:52;;;;;;;;;;;22.00;70.10;;;;;;5110049;28;19927;-65
2023/08/24 11:40:26;;;;;;;;;;;22.00;70.20;;;;;;5108469;28;20317;-66
2023/08/24 11:42:55;;;;;;;;;;;22.00;70.90;;;;;;5108400;28;19920;-66
2023/08/24 11:45:21;;;;;;;;;;;22.00;70.20;;;;;;5109602;28;19942;-65
2023/08/24 11:47:46;;;;;;;;;;;22.00;70.90;;;;;;5108154;28;19928;-65
2023/08/24 11:50:12;;;;;;;;;;;22.00;70.20;;;;;;5091615;28;20436;-65
2023/08/24 11:52:44;;;;;;;;;;;22.00;70.20;;;;;;5108455;28;19920;-70
2023/08/24 11:55:10;;;;;;;;;;;22.00;70.20;;;;;;5108467;28;19926;-65
2023/08/24 11:57:36;;;;;;;;;;;22.00;70.20;;;;;;5108026;28;19928;-65
2023/08/24 12:00:02;;;;;;;;;;;22.00;70.20;;;;;;5109601;28;19967;-65
2023/08/24 12:02:28;;;;;;;;;;;22.00;70.30;;;;;;5107841;28;19933;-65
2023/08/24 12:04:54;;;;;;;;;;;22.00;70.20;;;;;;5108332;28;19920;-65
2023/08/24 12:07:20;;;;;;;;;;;22.00;70.20;;;;;;5107657;28;19923;-65
2023/08/24 12:09:46;;;;;;;;;;;22.00;70.20;;;;;;5107879;28;19927;-65
2023/08/24 12:12:12;;;;;;;;;;;22.00;70.30;;;;;;5107650;28;19920;-65
2023/08/24 12:14:41;;;;;;;;;;;22.00;70.20;;;;;;5108418;28;19924;-65
2023/08/24 12:17:07;;;;;;;;;;;22.00;70.30;;;;;;5107868;28;19935;-65
2023/08/24 12:19:33;;;;;;;;;;;22.00;70.30;;;;;;5094096;28;19928;-65
2023/08/24 12:21:58;;;;;;;;;;;22.00;70.30;;;;;;5094074;28;19920;-65
2023/08/24 12:24:24;;;;;;;;;;;22.00;70.30;;;;;;5094444;28;19927;-65
2023/08/24 12:26:55;;;;;;;;;;;22.00;70.30;;;;;;5093938;28;19924;-65
2023/08/24 12:29:20;;;;;;;;;;;22.00;70.30;;;;;;5094234;28;19935;-65
2023/08/24 12:31:46;;;;;;;;;;;22.00;70.30;;;;;;5093916;28;19924;-65
2023/08/24 12:34:14;;;;;;;;;;;22.00;70.40;;;;;;5093833;28;20294;-65
2023/08/24 12:36:41;;;;;;;;;;;22.00;70.30;;;;;;5094123;28;20387;-65
2023/08/24 12:39:07;;;;;;;;;;;22.00;70.40;;;;;;5093742;28;19928;-65
2023/08/24 12:41:33;;;;;;;;;;;22.00;70.40;;;;;;5095019;28;19920;-65
2023/08/24 12:43:59;;;;;;;;;;;22.00;70.40;;;;;;5093819;28;19927;-65
2023/08/24 12:46:25;;;;;;;;;;;22.00;70.40;;;;;;5093594;28;19930;-65
2023/08/24 12:48:51;;;;;;;;;;;22.00;70.40;;;;;;5094954;28;19989;-65
2023/08/24 12:51:16;;;;;;;;;;;22.00;70.40;;;;;;5093617;28;20177;-65
2023/08/24 12:53:42;;;;;;;;;;;22.00;70.40;;;;;;5093796;28;20188;-70
2023/08/24 12:56:08;;;;;;;;;;;22.00;70.50;;;;;;5093458;28;19927;-65
2023/08/24 12:58:33;;;;;;;;;;;22.00;70.50;;;;;;5094497;28;19920;-65
2023/08/24 13:00:59;;;;;;;;;;;22.00;70.50;;;;;;5093685;28;19924;-65
2023/08/24 13:03:24;;;;;;;;;;;22.10;70.60;;;;;;5093253;28;19967;-65
2023/08/24 13:05:50;;;;;;;;;;;22.00;70.60;;;;;;5096661;28;19931;-70
2023/08/24 13:08:15;;;;;;;;;;;22.00;70.60;;;;;;5096666;28;19920;-70
2023/08/24 13:10:42;;;;;;;;;;;22.00;70.60;;;;;;5096442;28;19920;-65
2023/08/24 13:13:07;;;;;;;;;;;22.10;70.60;;;;;;5096646;28;19919;-65
2023/08/24 13:15:33;;;;;;;;;;;22.10;70.70;;;;;;5096620;28;20362;-65
2023/08/24 13:17:58;;;;;;;;;;;22.10;70.70;;;;;;5096650;28;20382;-65
2023/08/24 13:20:25;;;;;;;;;;;22.10;70.70;;;;;;5114554;28;19927;-65
2023/08/24 13:22:52;;;;;;;;;;;22.00;70.60;;;;;;5114669;28;20329;-65
2023/08/24 13:25:18;;;;;;;;;;;22.10;70.70;;;;;;5096261;28;19958;-71
2023/08/24 13:27:43;;;;;;;;;;;22.10;70.80;;;;;;5096493;28;20350;-64
2023/08/24 13:30:09;;;;;;;;;;;22.10;70.80;;;;;;5095375;28;19926;-65
2023/08/24 13:32:35;;;;;;;;;;;22.10;70.80;;;;;;5096359;28;20336;-64
2023/08/24 13:35:01;;;;;;;;;;;22.10;70.80;;;;;;5114695;28;20081;-65
2023/08/24 13:37:26;;;;;;;;;;;22.10;70.90;;;;;;5095977;28;20376;-65
2023/08/24 13:39:52;;;;;;;;;;;22.10;70.80;;;;;;5095884;28;20131;-65
2023/08/24 13:42:17;;;;;;;;;;;22.10;70.90;;;;;;5114164;28;20007;-66
2023/08/24 13:44:43;;;;;;;;;;;22.10;70.90;;;;;;5095695;28;19920;-65
2023/08/24 13:47:09;;;;;;;;;;;22.10;70.90;;;;;;5114103;28;19919;-65
2023/08/24 13:49:34;;;;;;;;;;;22.10;70.90;;;;;;5114180;28;19965;-65
2023/08/24 13:52:00;;;;;;;;;;;22.10;70.90;;;;;;5114197;28;20233;-65
2023/08/24 13:54:26;;;;;;;;;;;22.10;70.90;;;;;;5095965;28;20066;-65
2023/08/24 13:56:53;;;;;;;;;;;22.10;70.90;;;;;;5095500;28;19923;-66
2023/08/24 13:59:19;;;;;;;;;;;22.10;70.90;;;;;;5095810;28;19969;-65
2023/08/24 14:01:44;;;;;;;;;;;22.10;70.90;;;;;;5095684;28;19919;-65
2023/08/24 14:04:10;;;;;;;;;;;22.10;71.00;;;;;;5095796;28;19946;-65
2023/08/24 14:06:36;;;;;;;;;;;22.10;71.00;;;;;;5095081;28;19994;-65
2023/08/24 14:09:02;;;;;;;;;;;22.10;70.90;;;;;;5095418;28;19949;-65
2023/08/24 14:11:28;;;;;;;;;;;22.10;71.00;;;;;;5113596;28;19942;-65
2023/08/24 14:13:54;;;;;;;;;;;22.10;70.90;;;;;;5095407;28;20390;-65
2023/08/24 14:16:19;;;;;;;;;;;22.10;71.00;;;;;;5095538;28;19923;-65